Bierbeek, Belgium
Current Conditions -  °F | °C
As of 11:25 AM on Wednesday 22 Oct 2014 (Local Time) from EBBE Reporting Station
Rain Showers Rain Showers  
Wind Chill:   Ceiling: 3500
Heat Index:   Visibility: 3mi
Dew Point:   Wind: 12mph
Humidity: 87%   Direction: 290°WNW
Pressure: 30.15"   Gusts: NA
Location:  50.83°N, 4.76°E
Report Text: EBBE 220925Z 29010KT 5000 -SHRA SCT024 BKN035 08/06 Q1021 WHT BLU TEMPO WHT
Loading
Personal Weather Stations






























Interactive Weather Map
Tropical Storm Tracking
New forecast layout! Learn more

10-Day Weather Forecast

Advertisements
Track Severe Weather on mobile